sensor_id;sensor_type;location;lat;lon;timestamp;pressure;altitude;pressure_sealevel;temperature;humidity
50434;BME280;36361;38.954;-9.002;2023-05-11T00:00:12;101063.44;;;18.94;80.70
50434;BME280;36361;38.954;-9.002;2023-05-11T00:01:13;101060.06;;;18.38;84.90
50434;BME280;36361;38.954;-9.002;2023-05-11T00:02:14;101062.34;;;18.46;88.36
50434;BME280;36361;38.954;-9.002;2023-05-11T00:03:15;101060.56;;;17.91;92.92
50434;BME280;36361;38.954;-9.002;2023-05-11T00:04:19;101061.88;;;18.77;84.59
50434;BME280;36361;38.954;-9.002;2023-05-11T00:05:19;101047.31;;;18.10;90.43
50434;BME280;36361;38.954;-9.002;2023-05-11T00:06:20;101051.06;;;17.82;97.08
50434;BME280;36361;38.954;-9.002;2023-05-11T00:07:21;101052.31;;;18.84;84.76
50434;BME280;36361;38.954;-9.002;2023-05-11T00:08:21;101053.75;;;18.65;85.11
50434;BME280;36361;38.954;-9.002;2023-05-11T00:09:22;101054.13;;;18.52;87.49
50434;BME280;36361;38.954;-9.002;2023-05-11T00:10:22;101050.06;;;18.81;84.42
50434;BME280;36361;38.954;-9.002;2023-05-11T00:11:23;101051.78;;;19.19;78.43
50434;BME280;36361;38.954;-9.002;2023-05-11T00:12:24;101045.44;;;19.98;71.83
50434;BME280;36361;38.954;-9.002;2023-05-11T00:13:25;101052.47;;;19.74;72.90
50434;BME280;36361;38.954;-9.002;2023-05-11T00:14:25;101052.69;;;20.20;68.97
50434;BME280;36361;38.954;-9.002;2023-05-11T00:15:26;101049.84;;;19.94;69.56
50434;BME280;36361;38.954;-9.002;2023-05-11T00:16:27;101038.91;;;20.25;68.54
50434;BME280;36361;38.954;-9.002;2023-05-11T00:17:30;101051.47;;;19.48;73.10
50434;BME280;36361;38.954;-9.002;2023-05-11T00:18:31;101048.59;;;19.32;76.12
50434;BME280;36361;38.954;-9.002;2023-05-11T00:19:32;101043.41;;;19.83;70.02
50434;BME280;36361;38.954;-9.002;2023-05-11T00:20:32;101046.94;;;19.74;71.31
50434;BME280;36361;38.954;-9.002;2023-05-11T00:21:33;101033.03;;;20.11;68.00
50434;BME280;36361;38.954;-9.002;2023-05-11T00:22:34;101042.69;;;20.03;68.73
50434;BME280;36361;38.954;-9.002;2023-05-11T00:23:34;101031.69;;;20.13;67.58
50434;BME280;36361;38.954;-9.002;2023-05-11T00:24:35;101044.88;;;20.01;67.74
50434;BME280;36361;38.954;-9.002;2023-05-11T00:25:36;101049.13;;;19.29;74.63
50434;BME280;36361;38.954;-9.002;2023-05-11T00:26:36;101048.44;;;19.12;78.41
50434;BME280;36361;38.954;-9.002;2023-05-11T00:27:37;101042.84;;;19.39;75.84
50434;BME280;36361;38.954;-9.002;2023-05-11T00:28:42;101039.66;;;19.20;77.97
50434;BME280;36361;38.954;-9.002;2023-05-11T00:29:43;101036.81;;;19.47;75.49
50434;BME280;36361;38.954;-9.002;2023-05-11T00:30:43;101033.00;;;19.96;70.91
50434;BME280;36361;38.954;-9.002;2023-05-11T00:31:44;101037.28;;;18.70;83.16
50434;BME280;36361;38.954;-9.002;2023-05-11T00:32:49;101040.81;;;19.62;74.31
50434;BME280;36361;38.954;-9.002;2023-05-11T00:33:50;101041.38;;;19.64;73.74
50434;BME280;36361;38.954;-9.002;2023-05-11T00:34:53;101024.50;;;20.17;68.73
50434;BME280;36361;38.954;-9.002;2023-05-11T00:35:54;101027.81;;;19.57;73.81
50434;BME280;36361;38.954;-9.002;2023-05-11T00:36:54;101026.38;;;20.02;69.95
50434;BME280;36361;38.954;-9.002;2023-05-11T00:37:55;101035.44;;;19.92;71.07
50434;BME280;36361;38.954;-9.002;2023-05-11T00:38:56;101030.28;;;20.06;69.75
50434;BME280;36361;38.954;-9.002;2023-05-11T00:39:57;101025.50;;;19.86;71.14
50434;BME280;36361;38.954;-9.002;2023-05-11T00:40:58;101019.22;;;20.06;69.56
50434;BME280;36361;38.954;-9.002;2023-05-11T00:41:58;101036.41;;;20.23;68.16
50434;BME280;36361;38.954;-9.002;2023-05-11T00:43:00;101035.56;;;20.12;69.38
50434;BME280;36361;38.954;-9.002;2023-05-11T00:44:04;101025.34;;;20.13;69.15
50434;BME280;36361;38.954;-9.002;2023-05-11T00:45:05;101025.63;;;20.27;67.79
50434;BME280;36361;38.954;-9.002;2023-05-11T00:46:06;101029.34;;;19.85;71.44
50434;BME280;36361;38.954;-9.002;2023-05-11T00:47:07;101036.31;;;19.55;75.13
50434;BME280;36361;38.954;-9.002;2023-05-11T00:48:08;101027.31;;;20.28;68.57
50434;BME280;36361;38.954;-9.002;2023-05-11T00:49:09;101035.41;;;19.82;72.35
50434;BME280;36361;38.954;-9.002;2023-05-11T00:50:11;101036.94;;;19.57;75.70
50434;BME280;36361;38.954;-9.002;2023-05-11T00:51:12;101038.66;;;19.74;73.68
50434;BME280;36361;38.954;-9.002;2023-05-11T00:52:13;101021.56;;;19.77;73.40
50434;BME280;36361;38.954;-9.002;2023-05-11T00:53:14;101030.56;;;20.09;70.66
50434;BME280;36361;38.954;-9.002;2023-05-11T00:54:15;101029.22;;;19.65;75.29
50434;BME280;36361;38.954;-9.002;2023-05-11T00:55:18;101038.66;;;19.74;74.09
50434;BME280;36361;38.954;-9.002;2023-05-11T00:56:20;101033.34;;;19.57;76.13
50434;BME280;36361;38.954;-9.002;2023-05-11T00:57:22;101032.25;;;19.26;80.62
50434;BME280;36361;38.954;-9.002;2023-05-11T00:58:24;101035.81;;;19.58;76.71
50434;BME280;36361;38.954;-9.002;2023-05-11T00:59:26;101031.28;;;19.47;78.76
50434;BME280;36361;38.954;-9.002;2023-05-11T01:00:26;101032.25;;;19.26;81.09
50434;BME280;36361;38.954;-9.002;2023-05-11T01:01:30;101036.84;;;19.52;77.42
50434;BME280;36361;38.954;-9.002;2023-05-11T01:02:31;101029.72;;;19.56;77.09
50434;BME280;36361;38.954;-9.002;2023-05-11T01:03:33;101027.00;;;19.62;76.03
50434;BME280;36361;38.954;-9.002;2023-05-11T01:04:34;101026.06;;;19.93;73.76
50434;BME280;36361;38.954;-9.002;2023-05-11T01:08:07;101026.84;;;19.41;80.32
50434;BME280;36361;38.954;-9.002;2023-05-11T01:10:44;101016.78;;;19.57;77.52
50434;BME280;36361;38.954;-9.002;2023-05-11T01:11:58;101014.16;;;19.40;79.48
50434;BME280;36361;38.954;-9.002;2023-05-11T01:14:15;101003.88;;;19.73;76.54
50434;BME280;36361;38.954;-9.002;2023-05-11T01:15:49;101010.91;;;19.53;79.49
50434;BME280;36361;38.954;-9.002;2023-05-11T01:16:57;101003.66;;;19.42;81.32
50434;BME280;36361;38.954;-9.002;2023-05-11T01:19:54;100998.16;;;19.47;80.74
50434;BME280;36361;38.954;-9.002;2023-05-11T01:21:00;100994.22;;;19.33;81.96
50434;BME280;36361;38.954;-9.002;2023-05-11T01:22:14;100997.66;;;18.81;89.39
50434;BME280;36361;38.954;-9.002;2023-05-11T01:25:11;100992.22;;;19.66;79.59
50434;BME280;36361;38.954;-9.002;2023-05-11T01:30:48;100971.88;;;19.77;76.84
50434;BME280;36361;38.954;-9.002;2023-05-11T01:31:53;100974.53;;;19.62;78.23
50434;BME280;36361;38.954;-9.002;2023-05-11T01:32:58;100977.00;;;20.26;71.68
50434;BME280;36361;38.954;-9.002;2023-05-11T01:34:08;100965.88;;;19.95;74.46
50434;BME280;36361;38.954;-9.002;2023-05-11T01:35:15;100981.91;;;20.03;74.62
50434;BME280;36361;38.954;-9.002;2023-05-11T01:36:18;100975.19;;;19.79;77.45
50434;BME280;36361;38.954;-9.002;2023-05-11T01:37:21;100972.75;;;19.87;75.69
50434;BME280;36361;38.954;-9.002;2023-05-11T01:38:25;100977.06;;;19.73;76.87
50434;BME280;36361;38.954;-9.002;2023-05-11T01:39:34;100975.91;;;20.27;72.03
50434;BME280;36361;38.954;-9.002;2023-05-11T01:40:36;100973.00;;;19.91;75.16
50434;BME280;36361;38.954;-9.002;2023-05-11T01:41:40;100985.72;;;19.87;75.29
50434;BME280;36361;38.954;-9.002;2023-05-11T01:42:47;100983.19;;;19.38;82.81
50434;BME280;36361;38.954;-9.002;2023-05-11T01:43:56;100975.41;;;19.67;78.12
50434;BME280;36361;38.954;-9.002;2023-05-11T01:44:59;100969.75;;;20.04;74.40
50434;BME280;36361;38.954;-9.002;2023-05-11T01:46:00;100977.34;;;19.67;79.98
50434;BME280;36361;38.954;-9.002;2023-05-11T01:47:03;100987.38;;;19.41;83.30
50434;BME280;36361;38.954;-9.002;2023-05-11T01:48:07;100972.63;;;19.25;85.09
50434;BME280;36361;38.954;-9.002;2023-05-11T01:49:09;100970.63;;;18.24;100.00
50434;BME280;36361;38.954;-9.002;2023-05-11T01:50:12;100967.81;;;18.73;94.42
50434;BME280;36361;38.954;-9.002;2023-05-11T01:51:16;100966.72;;;19.06;90.07
50434;BME280;36361;38.954;-9.002;2023-05-11T01:52:20;100974.84;;;19.28;87.12
50434;BME280;36361;38.954;-9.002;2023-05-11T01:53:23;100970.41;;;18.85;91.72
50434;BME280;36361;38.954;-9.002;2023-05-11T01:54:26;100964.00;;;19.11;88.32
50434;BME280;36361;38.954;-9.002;2023-05-11T01:55:33;100961.03;;;19.23;86.82
50434;BME280;36361;38.954;-9.002;2023-05-11T01:56:36;100961.72;;;19.40;85.33
50434;BME280;36361;38.954;-9.002;2023-05-11T01:57:38;100957.75;;;19.26;86.69
50434;BME280;36361;38.954;-9.002;2023-05-11T01:58:40;100960.94;;;19.50;82.74
50434;BME280;36361;38.954;-9.002;2023-05-11T01:59:42;100967.22;;;19.40;84.40
50434;BME280;36361;38.954;-9.002;2023-05-11T02:00:45;100958.44;;;19.48;82.83
50434;BME280;36361;38.954;-9.002;2023-05-11T02:01:46;100965.84;;;18.41;97.44
50434;BME280;36361;38.954;-9.002;2023-05-11T02:02:48;100958.38;;;18.96;92.28
50434;BME280;36361;38.954;-9.002;2023-05-11T02:03:51;100972.09;;;18.10;100.00
50434;BME280;36361;38.954;-9.002;2023-05-11T02:04:54;100967.75;;;17.92;100.00
50434;BME280;36361;38.954;-9.002;2023-05-11T02:05:57;100971.38;;;17.54;100.00
50434;BME280;36361;38.954;-9.002;2023-05-11T02:06:59;100959.31;;;18.74;96.35
50434;BME280;36361;38.954;-9.002;2023-05-11T02:08:02;100960.22;;;18.85;95.06
50434;BME280;36361;38.954;-9.002;2023-05-11T02:09:06;100958.19;;;19.55;84.90
50434;BME280;36361;38.954;-9.002;2023-05-11T02:10:08;100958.13;;;20.02;77.98
50434;BME280;36361;38.954;-9.002;2023-05-11T02:11:10;100968.88;;;18.67;94.32
50434;BME280;36361;38.954;-9.002;2023-05-11T02:12:13;100969.34;;;18.59;99.11
50434;BME280;36361;38.954;-9.002;2023-05-11T02:13:17;100967.66;;;18.85;94.51
50434;BME280;36361;38.954;-9.002;2023-05-11T02:14:19;100955.13;;;18.45;100.00
50434;BME280;36361;38.954;-9.002;2023-05-11T02:15:21;100957.63;;;19.06;91.94
50434;BME280;36361;38.954;-9.002;2023-05-11T02:16:23;100964.16;;;18.94;93.98
50434;BME280;36361;38.954;-9.002;2023-05-11T02:17:28;100966.88;;;18.62;97.46
50434;BME280;36361;38.954;-9.002;2023-05-11T02:18:30;100969.91;;;18.34;100.00
50434;BME280;36361;38.954;-9.002;2023-05-11T02:19:35;100964.66;;;18.32;100.00
50434;BME280;36361;38.954;-9.002;2023-05-11T02:20:38;100955.06;;;18.94;93.38
50434;BME280;36361;38.954;-9.002;2023-05-11T02:21:42;100953.34;;;18.88;93.36
50434;BME280;36361;38.954;-9.002;2023-05-11T02:22:48;100967.31;;;19.13;89.54
50434;BME280;36361;38.954;-9.002;2023-05-11T02:23:50;100942.56;;;19.28;87.16
50434;BME280;36361;38.954;-9.002;2023-05-11T02:24:52;100952.28;;;19.31;86.16
50434;BME280;36361;38.954;-9.002;2023-05-11T02:25:53;100947.56;;;19.84;79.88
50434;BME280;36361;38.954;-9.002;2023-05-11T02:26:55;100949.84;;;19.97;76.90
50434;BME280;36361;38.954;-9.002;2023-05-11T02:27:57;100945.28;;;19.66;81.21
50434;BME280;36361;38.954;-9.002;2023-05-11T02:28:58;100947.59;;;18.94;90.76
50434;BME280;36361;38.954;-9.002;2023-05-11T02:29:59;100950.53;;;19.20;87.77
50434;BME280;36361;38.954;-9.002;2023-05-11T02:31:04;100954.34;;;19.14;88.30
50434;BME280;36361;38.954;-9.002;2023-05-11T02:32:14;100937.59;;;19.68;80.68
50434;BME280;36361;38.954;-9.002;2023-05-11T02:33:20;100944.63;;;20.11;74.83
50434;BME280;36361;38.954;-9.002;2023-05-11T02:34:25;100946.59;;;18.73;88.17
50434;BME280;36361;38.954;-9.002;2023-05-11T02:35:28;100937.81;;;19.19;88.36
50434;BME280;36361;38.954;-9.002;2023-05-11T02:36:31;100933.59;;;18.69;92.73
50434;BME280;36361;38.954;-9.002;2023-05-11T02:37:33;100940.97;;;19.38;84.45
50434;BME280;36361;38.954;-9.002;2023-05-11T02:38:37;100926.41;;;19.47;82.97
50434;BME280;36361;38.954;-9.002;2023-05-11T02:39:45;100937.47;;;19.52;81.65
50434;BME280;36361;38.954;-9.002;2023-05-11T02:40:49;100934.31;;;19.81;79.42
50434;BME280;36361;38.954;-9.002;2023-05-11T02:41:55;100935.91;;;19.19;85.41
50434;BME280;36361;38.954;-9.002;2023-05-11T02:43:20;100938.97;;;19.23;84.35
50434;BME280;36361;38.954;-9.002;2023-05-11T02:44:31;100940.78;;;19.54;82.33
50434;BME280;36361;38.954;-9.002;2023-05-11T02:45:36;100942.09;;;18.94;85.20
50434;BME280;36361;38.954;-9.002;2023-05-11T02:46:40;100932.78;;;19.53;81.85
50434;BME280;36361;38.954;-9.002;2023-05-11T02:47:51;100946.78;;;18.94;82.63
50434;BME280;36361;38.954;-9.002;2023-05-11T02:48:58;100942.16;;;18.40;94.90
50434;BME280;36361;38.954;-9.002;2023-05-11T02:50:02;100940.25;;;18.19;95.06
50434;BME280;36361;38.954;-9.002;2023-05-11T02:51:10;100937.75;;;18.71;92.36
50434;BME280;36361;38.954;-9.002;2023-05-11T02:52:20;100943.72;;;18.63;86.49
50434;BME280;36361;38.954;-9.002;2023-05-11T02:53:25;100936.81;;;18.61;87.49
50434;BME280;36361;38.954;-9.002;2023-05-11T02:54:27;100943.69;;;18.85;88.25
50434;BME280;36361;38.954;-9.002;2023-05-11T02:55:30;100939.59;;;18.93;86.12
50434;BME280;36361;38.954;-9.002;2023-05-11T02:56:31;100921.63;;;19.32;82.42
50434;BME280;36361;38.954;-9.002;2023-05-11T02:57:32;100939.47;;;19.15;80.18
50434;BME280;36361;38.954;-9.002;2023-05-11T02:58:37;100932.03;;;18.78;85.38
50434;BME280;36361;38.954;-9.002;2023-05-11T02:59:54;100925.50;;;19.37;82.86
50434;BME280;36361;38.954;-9.002;2023-05-11T03:00:55;100921.38;;;19.34;80.62
50434;BME280;36361;38.954;-9.002;2023-05-11T03:01:57;100926.13;;;19.01;81.04
50434;BME280;36361;38.954;-9.002;2023-05-11T03:02:58;100917.97;;;18.74;84.72
50434;BME280;36361;38.954;-9.002;2023-05-11T03:04:03;100915.34;;;19.42;79.79
50434;BME280;36361;38.954;-9.002;2023-05-11T03:05:04;100919.34;;;19.19;77.82
50434;BME280;36361;38.954;-9.002;2023-05-11T03:06:05;100919.66;;;19.23;77.81
50434;BME280;36361;38.954;-9.002;2023-05-11T03:07:07;100914.41;;;19.69;77.65
50434;BME280;36361;38.954;-9.002;2023-05-11T03:08:08;100916.53;;;19.56;75.82
50434;BME280;36361;38.954;-9.002;2023-05-11T03:09:09;100933.22;;;18.92;79.74
50434;BME280;36361;38.954;-9.002;2023-05-11T03:10:14;100914.16;;;19.28;80.22
50434;BME280;36361;38.954;-9.002;2023-05-11T03:11:17;100928.38;;;19.10;77.30
50434;BME280;36361;38.954;-9.002;2023-05-11T03:12:21;100937.00;;;18.81;79.27
50434;BME280;36361;38.954;-9.002;2023-05-11T03:13:22;100927.19;;;18.95;80.73
50434;BME280;36361;38.954;-9.002;2023-05-11T03:14:26;100923.34;;;18.96;85.50
50434;BME280;36361;38.954;-9.002;2023-05-11T03:15:30;100917.50;;;19.30;82.43
50434;BME280;36361;38.954;-9.002;2023-05-11T03:16:33;100916.41;;;19.36;80.59
50434;BME280;36361;38.954;-9.002;2023-05-11T03:17:34;100927.81;;;19.02;75.40
50434;BME280;36361;38.954;-9.002;2023-05-11T03:18:37;100910.50;;;19.12;81.27
50434;BME280;36361;38.954;-9.002;2023-05-11T03:19:40;100919.41;;;18.87;82.75
50434;BME280;36361;38.954;-9.002;2023-05-11T03:20:46;100931.69;;;18.69;80.71
50434;BME280;36361;38.954;-9.002;2023-05-11T03:21:50;100926.31;;;18.58;85.47
50434;BME280;36361;38.954;-9.002;2023-05-11T03:22:52;100925.56;;;18.99;84.22
50434;BME280;36361;38.954;-9.002;2023-05-11T03:23:54;100925.09;;;18.16;95.64
50434;BME280;36361;38.954;-9.002;2023-05-11T03:24:57;100925.63;;;18.40;83.99
50434;BME280;36361;38.954;-9.002;2023-05-11T03:25:58;100920.50;;;18.54;86.41
50434;BME280;36361;38.954;-9.002;2023-05-11T03:27:00;100922.28;;;18.65;83.07
50434;BME280;36361;38.954;-9.002;2023-05-11T03:28:03;100919.50;;;18.97;85.00
50434;BME280;36361;38.954;-9.002;2023-05-11T03:29:06;100909.81;;;19.42;78.34
50434;BME280;36361;38.954;-9.002;2023-05-11T03:30:09;100916.53;;;18.72;85.56
50434;BME280;36361;38.954;-9.002;2023-05-11T03:31:15;100905.88;;;19.23;81.82
50434;BME280;36361;38.954;-9.002;2023-05-11T03:32:16;100915.88;;;19.39;74.70
50434;BME280;36361;38.954;-9.002;2023-05-11T03:33:17;100919.88;;;19.58;75.31
50434;BME280;36361;38.954;-9.002;2023-05-11T03:34:18;100907.91;;;19.43;78.75
50434;BME280;36361;38.954;-9.002;2023-05-11T03:35:21;100898.84;;;19.05;80.64
50434;BME280;36361;38.954;-9.002;2023-05-11T03:36:26;100909.50;;;19.96;71.13
50434;BME280;36361;38.954;-9.002;2023-05-11T03:37:29;100909.47;;;19.76;68.07
50434;BME280;36361;38.954;-9.002;2023-05-11T03:38:34;100912.03;;;19.45;73.62
50434;BME280;36361;38.954;-9.002;2023-05-11T03:39:37;100917.19;;;19.79;72.00
50434;BME280;36361;38.954;-9.002;2023-05-11T03:40:41;100905.25;;;19.16;72.85
50434;BME280;36361;38.954;-9.002;2023-05-11T03:41:43;100909.81;;;19.42;74.21
50434;BME280;36361;38.954;-9.002;2023-05-11T03:42:45;100906.13;;;19.69;71.94
50434;BME280;36361;38.954;-9.002;2023-05-11T03:43:48;100907.63;;;19.44;69.02
50434;BME280;36361;38.954;-9.002;2023-05-11T03:44:52;100906.63;;;19.60;74.05
50434;BME280;36361;38.954;-9.002;2023-05-11T03:45:56;100906.00;;;19.53;69.41
50434;BME280;36361;38.954;-9.002;2023-05-11T03:46:59;100908.19;;;19.46;72.40
50434;BME280;36361;38.954;-9.002;2023-05-11T03:48:01;100914.41;;;19.21;67.05
50434;BME280;36361;38.954;-9.002;2023-05-11T03:49:04;100911.16;;;18.87;78.50
50434;BME280;36361;38.954;-9.002;2023-05-11T03:50:06;100913.03;;;19.24;75.31
50434;BME280;36361;38.954;-9.002;2023-05-11T03:51:09;100915.50;;;18.78;71.49
50434;BME280;36361;38.954;-9.002;2023-05-11T03:52:10;100911.91;;;18.78;80.20
50434;BME280;36361;38.954;-9.002;2023-05-11T03:53:12;100915.09;;;19.01;80.67
50434;BME280;36361;38.954;-9.002;2023-05-11T03:54:13;100913.03;;;19.24;75.88
50434;BME280;36361;38.954;-9.002;2023-05-11T03:55:14;100909.66;;;19.12;74.38
50434;BME280;36361;38.954;-9.002;2023-05-11T03:56:15;100916.34;;;19.26;73.14
50434;BME280;36361;38.954;-9.002;2023-05-11T03:57:16;100911.97;;;19.30;76.42
50434;BME280;36361;38.954;-9.002;2023-05-11T03:58:17;100899.88;;;19.41;74.79
50434;BME280;36361;38.954;-9.002;2023-05-11T03:59:17;100908.28;;;19.62;71.77
50434;BME280;36361;38.954;-9.002;2023-05-11T04:00:18;100904.53;;;18.88;75.73
50434;BME280;36361;38.954;-9.002;2023-05-11T04:01:20;100907.41;;;19.03;74.83
50434;BME280;36361;38.954;-9.002;2023-05-11T04:02:22;100902.63;;;18.57;82.01
50434;BME280;36361;38.954;-9.002;2023-05-11T04:03:23;100902.50;;;18.46;82.06
50434;BME280;36361;38.954;-9.002;2023-05-11T04:04:28;100901.47;;;18.53;82.05
50434;BME280;36361;38.954;-9.002;2023-05-11T04:05:31;100908.75;;;18.10;85.63
50434;BME280;36361;38.954;-9.002;2023-05-11T04:06:35;100901.97;;;18.77;80.12
50434;BME280;36361;38.954;-9.002;2023-05-11T04:07:49;100895.66;;;18.49;85.50
50434;BME280;36361;38.954;-9.002;2023-05-11T04:08:52;100904.00;;;18.91;80.66
50434;BME280;36361;38.954;-9.002;2023-05-11T04:09:52;100907.16;;;18.68;77.83
50434;BME280;36361;38.954;-9.002;2023-05-11T04:10:53;100883.59;;;18.92;81.14
50434;BME280;36361;38.954;-9.002;2023-05-11T04:11:54;100905.00;;;18.75;79.78
50434;BME280;36361;38.954;-9.002;2023-05-11T04:12:58;100896.03;;;19.47;75.58
50434;BME280;36361;38.954;-9.002;2023-05-11T04:13:59;100880.59;;;19.51;74.08
50434;BME280;36361;38.954;-9.002;2023-05-11T04:15:04;100894.16;;;19.06;78.46
50434;BME280;36361;38.954;-9.002;2023-05-11T04:16:05;100892.50;;;19.04;77.43
50434;BME280;36361;38.954;-9.002;2023-05-11T04:17:06;100900.66;;;18.89;74.35
50434;BME280;36361;38.954;-9.002;2023-05-11T04:18:07;100892.56;;;19.62;73.29
50434;BME280;36361;38.954;-9.002;2023-05-11T04:19:08;100889.94;;;19.40;71.50
50434;BME280;36361;38.954;-9.002;2023-05-11T04:20:09;100904.66;;;19.09;74.19
50434;BME280;36361;38.954;-9.002;2023-05-11T04:21:09;100898.13;;;19.25;73.43
50434;BME280;36361;38.954;-9.002;2023-05-11T04:22:10;100892.91;;;18.81;75.83
50434;BME280;36361;38.954;-9.002;2023-05-11T04:23:11;100894.75;;;18.38;82.33
50434;BME280;36361;38.954;-9.002;2023-05-11T04:24:12;100890.28;;;18.32;82.05
50434;BME280;36361;38.954;-9.002;2023-05-11T04:25:13;100895.69;;;18.86;81.15
50434;BME280;36361;38.954;-9.002;2023-05-11T04:26:14;100895.00;;;18.69;82.07
50434;BME280;36361;38.954;-9.002;2023-05-11T04:27:15;100879.44;;;18.90;80.91
50434;BME280;36361;38.954;-9.002;2023-05-11T04:28:15;100899.00;;;18.88;76.85
50434;BME280;36361;38.954;-9.002;2023-05-11T04:29:16;100901.00;;;19.40;75.68
50434;BME280;36361;38.954;-9.002;2023-05-11T04:30:17;100892.81;;;19.60;73.27
50434;BME280;36361;38.954;-9.002;2023-05-11T04:31:20;100895.56;;;18.66;81.26
50434;BME280;36361;38.954;-9.002;2023-05-11T04:32:21;100899.47;;;19.12;75.99
50434;BME280;36361;38.954;-9.002;2023-05-11T04:33:23;100888.63;;;19.53;73.97
50434;BME280;36361;38.954;-9.002;2023-05-11T04:34:25;100893.69;;;19.19;71.73
50434;BME280;36361;38.954;-9.002;2023-05-11T04:35:26;100881.78;;;19.66;72.72
50434;BME280;36361;38.954;-9.002;2023-05-11T04:36:26;100891.19;;;19.75;66.73
50434;BME280;36361;38.954;-9.002;2023-05-11T04:37:27;100896.44;;;19.14;76.17
50434;BME280;36361;38.954;-9.002;2023-05-11T04:38:28;100892.34;;;19.79;68.99
50434;BME280;36361;38.954;-9.002;2023-05-11T04:39:30;100892.81;;;19.60;71.58
50434;BME280;36361;38.954;-9.002;2023-05-11T04:40:30;100903.44;;;19.99;67.43
50434;BME280;36361;38.954;-9.002;2023-05-11T04:41:31;100891.88;;;20.12;67.65
50434;BME280;36361;38.954;-9.002;2023-05-11T04:42:33;100901.81;;;20.18;62.49
50434;BME280;36361;38.954;-9.002;2023-05-11T04:43:36;100904.88;;;20.37;64.89
50434;BME280;36361;38.954;-9.002;2023-05-11T04:44:37;100902.31;;;19.90;65.36
50434;BME280;36361;38.954;-9.002;2023-05-11T04:45:40;100901.72;;;18.83;67.85
50434;BME280;36361;38.954;-9.002;2023-05-11T04:46:46;100894.84;;;19.85;68.10
50434;BME280;36361;38.954;-9.002;2023-05-11T04:47:47;100899.84;;;19.99;63.80
50434;BME280;36361;38.954;-9.002;2023-05-11T04:48:49;100894.69;;;19.50;70.12
50434;BME280;36361;38.954;-9.002;2023-05-11T04:49:56;100897.63;;;19.33;64.86
50434;BME280;36361;38.954;-9.002;2023-05-11T04:50:57;100901.38;;;17.67;80.63
50434;BME280;36361;38.954;-9.002;2023-05-11T04:52:02;100907.91;;;19.00;77.05
50434;BME280;36361;38.954;-9.002;2023-05-11T04:53:04;100901.22;;;18.91;72.34
50434;BME280;36361;38.954;-9.002;2023-05-11T04:54:05;100896.38;;;19.03;76.79
50434;BME280;36361;38.954;-9.002;2023-05-11T04:55:06;100911.69;;;18.89;68.94
50434;BME280;36361;38.954;-9.002;2023-05-11T04:56:07;100901.22;;;18.86;74.10
50434;BME280;36361;38.954;-9.002;2023-05-11T04:57:07;100900.56;;;19.64;66.93
50434;BME280;36361;38.954;-9.002;2023-05-11T04:58:08;100900.56;;;19.64;71.16
50434;BME280;36361;38.954;-9.002;2023-05-11T04:59:10;100909.94;;;19.57;69.77
50434;BME280;36361;38.954;-9.002;2023-05-11T05:00:11;100908.72;;;18.64;75.29
50434;BME280;36361;38.954;-9.002;2023-05-11T05:01:11;100909.53;;;18.64;70.82
50434;BME280;36361;38.954;-9.002;2023-05-11T05:02:13;100905.63;;;19.29;69.50
50434;BME280;36361;38.954;-9.002;2023-05-11T05:03:16;100900.09;;;19.87;69.04
50434;BME280;36361;38.954;-9.002;2023-05-11T05:04:17;100907.22;;;19.73;68.05
50434;BME280;36361;38.954;-9.002;2023-05-11T05:05:18;100920.16;;;19.62;66.34
50434;BME280;36361;38.954;-9.002;2023-05-11T05:06:19;100907.03;;;19.37;70.51
50434;BME280;36361;38.954;-9.002;2023-05-11T05:07:20;100913.63;;;18.57;80.18
50434;BME280;36361;38.954;-9.002;2023-05-11T05:08:20;100917.16;;;18.52;77.40
50434;BME280;36361;38.954;-9.002;2023-05-11T05:09:22;100923.31;;;18.05;80.18
50434;BME280;36361;38.954;-9.002;2023-05-11T05:10:23;100924.22;;;17.67;81.61
50434;BME280;36361;38.954;-9.002;2023-05-11T05:11:23;100915.50;;;17.53;83.75
50434;BME280;36361;38.954;-9.002;2023-05-11T05:12:24;100932.81;;;18.19;78.66
50434;BME280;36361;38.954;-9.002;2023-05-11T05:13:25;100928.38;;;17.91;77.38
50434;BME280;36361;38.954;-9.002;2023-05-11T05:14:26;100918.91;;;17.39;88.74
50434;BME280;36361;38.954;-9.002;2023-05-11T05:15:27;100929.94;;;18.31;76.61
50434;BME280;36361;38.954;-9.002;2023-05-11T05:16:27;100937.09;;;17.01;86.81
50434;BME280;36361;38.954;-9.002;2023-05-11T05:17:28;100927.00;;;15.82;100.00
50434;BME280;36361;38.954;-9.002;2023-05-11T05:18:32;100942.09;;;16.42;100.00
50434;BME280;36361;38.954;-9.002;2023-05-11T05:19:33;100939.25;;;15.80;100.00
50434;BME280;36361;38.954;-9.002;2023-05-11T05:20:37;100939.22;;;16.65;100.00
50434;BME280;36361;38.954;-9.002;2023-05-11T05:21:39;100936.84;;;15.95;100.00
50434;BME280;36361;38.954;-9.002;2023-05-11T05:22:40;100934.16;;;15.72;100.00
50434;BME280;36361;38.954;-9.002;2023-05-11T05:23:42;100926.81;;;16.01;100.00
50434;BME280;36361;38.954;-9.002;2023-05-11T05:24:43;100926.38;;;16.54;100.00
50434;BME280;36361;38.954;-9.002;2023-05-11T05:26:04;100931.22;;;17.14;96.44
50434;BME280;36361;38.954;-9.002;2023-05-11T05:27:06;100937.16;;;16.89;90.21
50434;BME280;36361;38.954;-9.002;2023-05-11T05:28:07;100945.41;;;16.72;100.00
50434;BME280;36361;38.954;-9.002;2023-05-11T05:29:08;100946.53;;;16.14;100.00
50434;BME280;36361;38.954;-9.002;2023-05-11T05:30:09;100941.91;;;15.75;100.00
50434;BME280;36361;38.954;-9.002;2023-05-11T05:31:10;100938.09;;;15.52;100.00
50434;BME280;36361;38.954;-9.002;2023-05-11T05:32:11;100940.06;;;15.63;100.00
50434;BME280;36361;38.954;-9.002;2023-05-11T05:33:11;100938.47;;;15.56;100.00
50434;BME280;36361;38.954;-9.002;2023-05-11T05:34:13;100937.41;;;15.45;100.00
50434;BME280;36361;38.954;-9.002;2023-05-11T05:35:13;100939.66;;;15.60;100.00
50434;BME280;36361;38.954;-9.002;2023-05-11T05:36:16;100937.31;;;16.20;100.00